Last 365 Observations

Shandon ETo (SLO-1)

Daily Data | America/Los_Angeles
as of 4/21/24 7:52 AM PDT
Date Daily Max Temp (°F) Time of Max Temp Daily Min Temp (°F) Time of Min Temp Daily Rain (In) Month Precip (In) Season Precip (In) Daily ETo (in) 7 Day ETo (in) Daily Solar Rad (Cal/cm2) Daily Max Wind (mph) Time of Max Wind Dew Pt (°F) Max RH (%) Min RH (%) Daily Max Temp 5ft (°F) Daily Min Temp 5ft (°F) Daily Max Temp 30ft (°F) Daily Min Temp 30ft (°F) Max Inversion (°F) Max Inversion Time Min Inversion (°F) Min Inversion Time Hrs 70-85F (hrs) Hrs > 95F (hrs) Powdery Mildew Stress (pts) GDDs (DL) Seas GDDs (DL) Hrs <= 32F (hrs) Hrs <= 28F (hrs) Chilling <=45F (hrs) Chilling <=45F Seas (hrs) MinBV Day (V)
4/20/24 79.8 1636 40.8 0637 0.00 1.52 12.31 0.178 1.06 595 14.8 1148 49.8 99 37 79.8 40.8 80.5 40.7 8.1 2232 -4.1 1131 6.90 0.00 40 10.8 130 0.0 0.0 4.9 - 12.4
4/19/24 73.7 1655 45.9 0350 0.00 1.52 12.31 0.142 0.92 514 12.5 1603 50.1 99 41 73.7 45.9 74.3 46.6 4.1 2146 -4.7 1236 4.13 0.00 50 6.8 119 0.0 0.0 0.0 - 12.4
4/18/24 81.2 1435 48.6 0528 0.00 1.52 12.31 0.172 0.90 552 16.8 1534 52.9 98 34 81.2 48.6 83.5 49.0 4.7 1207 -3.4 1502 7.84 0.00 30 11.8 112 0.0 0.0 0.0 - 12.5
4/17/24 80.6 1541 45.0 0547 0.00 1.52 12.31 0.171 0.92 576 13.8 1103 52.8 98 40 80.6 45.0 83.7 45.7 5.5 2052 -3.4 1111 8.36 0.00 10 12.8 101 0.0 0.0 0.0 - 12.5
4/16/24 72.8 1650 38.2 0630 0.00 1.52 12.31 0.168 0.93 612 19.5 1055 48.5 99 48 72.8 38.2 73.6 39.4 4.5 0323 -3.9 1420 3.58 0.00 20 8.8 88 0.0 0.0 5.3 - 12.4
4/15/24 64.4 1526 40.0 0309 0.00 1.52 12.31 0.126 0.92 482 19.5 1523 44.9 99 49 64.4 40.0 64.7 40.5 3.8 2042 -4.5 1122 0.00 0.00 30 4.1 79 0.0 0.0 8.6 - 12.5
4/14/24 61.6 1758 42.9 2356 0.83 1.52 12.31 0.107 0.94 438 15.2 1452 44.9 98 48 61.6 42.9 63.2 43.3 2.4 2353 -5.4 0950 0.00 0.00 40 2.6 75 0.0 0.0 3.3 - 12.4
4/13/24 55.4 0428 40.2 1431 0.47 0.69 11.48 0.039 0.93 152 26.6 1154 43.3 95 63 55.4 40.2 55.9 39.6 1.7 0539 -2.7 1156 0.00 0.00 50 1.4 72 0.0 0.0 11.3 - 12.4
4/12/24 64.5 1126 42.6 0648 0.00 0.22 11.01 0.119 1.03 493 20.9 1430 48.3 97 64 64.5 42.6 64.5 43.2 3.2 0836 -6.6 1254 0.00 0.00 60 4.5 71 0.0 0.0 2.1 - 12.4
4/11/24 87.9 1746 42.2 0546 0.00 0.22 11.01 0.189 0.99 576 13.5 1136 49.6 97 22 87.9 42.2 90.3 43.7 6.2 2046 -3.6 1227 8.44 0.00 40 14.0 66 0.0 0.0 3.3 - 12.4
4/10/24 81.2 1718 40.9 0623 0.00 0.22 11.01 0.181 0.87 595 11.5 1137 46.3 96 26 81.2 40.9 82.9 42.1 7.1 2058 -3.2 1221 8.38 0.00 20 12.0 53 0.0 0.0 6.0 - 12.4
4/9/24 78.6 1830 35.9 0510 0.00 0.22 11.01 0.165 0.85 597 11.5 1505 42.6 96 29 78.6 35.9 82.9 37.4 6.8 1946 -3.1 1151 6.52 0.00 0 9.4 41 0.0 0.0 7.1 - 12.4
4/8/24 68.3 1753 35.3 0359 0.00 0.22 11.01 0.138 0.85 524 11.5 1520 39.9 99 33 68.3 35.3 69.7 35.8 7.4 2311 -3.7 1208 0.00 0.00 0 4.7 31 0.0 0.0 10.8 - 12.4
4/7/24 62.8 1747 33.1 0711 0.00 0.22 11.01 0.104 0.85 430 17.2 1453 38.9 98 43 62.8 33.1 64.6 33.8 3.5 2038 -5.1 1357 0.00 0.00 0 2.7 26 0.0 0.0 9.9 - 12.4
4/6/24 62.4 1630 29.5 0642 0.00 0.22 11.01 0.131 0.86 569 15.2 1432 36.3 98 36 62.4 29.5 65.4 30.1 5.4 2223 -4.0 1323 0.00 0.00 0 2.4 24 1.6 0.0 11.8 - 12.3
4/5/24 51.6 1129 32.4 0022 0.07 0.22 11.01 0.079 0.82 409 27.2 1524 37.6 97 59 51.6 32.4 51.0 33.8 6.5 1535 -4.6 1448 0.00 0.00 0 0.0 21 0.0 0.0 15.5 - 12.4
4/4/24 53.2 1147 39.7 2102 0.14 0.15 10.94 0.068 0.82 336 30.2 1538 41.7 99 58 53.2 39.7 52.2 39.9 1.0 2226 -3.7 1123 0.00 0.00 0 0.1 21 0.0 0.0 9.0 - 12.4
4/3/24 72.9 1352 39.3 0526 0.00 0.01 10.80 0.163 0.87 581 19.8 1505 45.5 98 35 72.9 39.3 72.5 39.8 3.9 0859 -3.4 1108 2.19 0.00 0 6.3 21 0.0 0.0 7.5 - 12.4
4/2/24 75.9 1437 40.0 0638 0.00 0.01 10.80 0.165 0.86 575 11.8 1719 46.7 99 37 75.9 40.0 77.2 41.4 7.6 2113 -2.9 1409 5.70 0.00 0 8.9 15 0.0 0.0 5.9 - 12.4
4/1/24 70.2 1728 41.6 0531 0.01 0.01 10.80 0.135 0.83 523 8.4 1433 46.5 99 37 70.2 41.6 74.4 42.4 4.9 2008 -3.3 1237 0.09 0.00 0 6.2 6 0.0 0.0 6.0 - 12.5
3/31/24 63.4 1300 37.8 0456 0.23 1.49 10.79 0.121 0.83 480 15.5 1654 43.7 98 48 63.4 37.8 64.0 38.1 4.4 0456 -4.8 1337 0.00 0.00 0 3.2 - 0.0 0.0 7.5 1,225 12.4
3/30/24 60.4 1359 42.2 0310 0.08 1.26 10.56 0.088 0.81 359 27.2 1404 43.4 98 51 60.4 42.2 59.3 42.8 3.6 0449 -3.8 1235 0.00 0.00 0 1.5 - 0.0 0.0 7.7 1,217 12.4
3/29/24 57.8 1426 38.5 0146 0.37 1.18 10.48 0.082 0.82 294 24.2 1554 42.4 96 53 57.8 38.5 56.9 39.2 2.7 0129 -3.8 1424 0.00 0.00 0 1.6 - 0.0 0.0 7.4 1,210 12.4
3/28/24 64.7 1339 39.7 0021 0.01 0.81 10.11 0.121 0.88 437 16.2 1407 43.8 97 32 64.7 39.7 65.3 40.6 4.1 2229 -4.7 1221 0.00 0.00 0 4.1 - 0.0 0.0 3.5 1,202 12.4
3/27/24 69.2 1451 32.8 0650 0.00 0.80 10.10 0.152 0.90 537 18.2 1637 41.9 99 30 69.2 32.8 69.2 34.6 4.6 0859 -4.3 1526 0.00 0.00 0 4.9 - 0.0 0.0 7.9 1,199 12.4
3/26/24 67.8 1753 34.4 0353 0.00 0.80 10.10 0.134 0.89 549 13.2 1533 42.5 99 46 67.8 34.4 68.4 35.9 6.3 2037 -4.7 1252 0.00 0.00 10 4.5 - 0.0 0.0 9.6 1,191 12.4
3/25/24 63.8 1627 35.1 0205 0.00 0.80 10.10 0.130 0.90 488 17.2 1753 41.8 99 36 63.8 35.1 63.8 37.0 6.1 0207 -5.5 1238 0.00 0.00 20 3.6 - 0.0 0.0 10.3 1,181 12.4
3/24/24 59.4 1536 35.5 0539 0.00 0.80 10.10 0.105 0.91 428 25.2 1746 40.2 99 49 59.4 35.5 58.7 36.5 3.9 0537 -5.4 1329 0.00 0.00 30 1.9 - 0.0 0.0 11.5 1,171 12.4
3/23/24 59.3 1458 36.1 0054 0.01 0.80 10.10 0.100 0.93 419 23.9 1554 43.7 98 54 59.3 36.1 59.6 38.2 5.1 0005 -4.3 1502 0.00 0.00 40 1.9 - 0.0 0.0 4.4 1,159 12.4
3/22/24 69.6 1416 42.0 0704 0.00 0.79 10.09 0.139 0.97 516 17.8 1653 47.4 97 36 69.6 42.0 69.7 44.6 3.5 0641 -3.9 1113 0.00 0.00 50 5.9 - 0.0 0.0 3.3 1,155 12.4
3/21/24 73.2 1644 36.2 0706 0.00 0.79 10.09 0.136 0.96 517 9.5 1434 41.8 95 28 73.2 36.2 76.3 37.1 7.1 2202 -3.3 1246 3.96 0.00 60 7.0 - 0.0 0.0 8.7 1,152 12.4
3/20/24 77.0 1627 38.7 0705 0.00 0.79 10.09 0.145 0.96 520 9.8 1938 44.1 97 31 77.0 38.7 85.3 39.8 9.6 1648 -2.9 0749 6.25 0.00 0 9.0 - 0.0 0.0 6.9 1,143 12.4
3/19/24 77.3 1749 40.2 0647 0.00 0.79 10.09 0.144 0.92 516 8.1 1340 47.3 97 42 77.3 40.2 78.9 41.1 7.0 2133 -3.4 0954 6.40 0.00 0 9.5 - 0.0 0.0 5.8 1,136 12.4
3/18/24 78.0 1538 37.6 0709 0.00 0.79 10.09 0.143 0.88 509 9.8 1646 45.7 98 33 78.0 37.6 81.5 38.4 7.9 2122 -2.5 1103 6.73 0.00 0 9.3 - 0.0 0.0 7.5 1,130 12.4
3/17/24 71.3 1629 37.0 0259 0.00 0.79 10.09 0.127 0.83 496 10.1 1522 44.4 99 39 71.3 37.0 72.8 38.3 9.0 1926 -3.5 1403 0.38 0.00 0 6.2 - 0.0 0.0 8.9 1,123 12.4
3/16/24 68.6 1453 33.4 0627 0.00 0.79 10.09 0.133 0.81 494 11.8 1548 38.5 97 27 68.6 33.4 69.0 34.2 6.9 2153 -2.8 1228 0.00 0.00 0 5.3 - 0.0 0.0 11.2 1,114 12.4
3/15/24 70.6 1719 30.6 0616 0.00 0.79 10.09 0.132 0.76 512 8.8 0502 35.7 95 23 70.6 30.6 74.6 31.5 7.3 2035 -3.4 1206 0.23 0.00 0 5.6 - 1.1 0.0 11.7 1,103 12.4
3/14/24 64.3 1623 32.3 0715 0.00 0.79 10.09 0.138 0.74 512 16.5 1036 35.0 95 26 64.3 32.3 64.6 33.1 6.0 2027 -3.4 1214 0.00 0.00 0 4.0 - 0.0 0.0 12.8 1,091 12.3
3/13/24 64.0 1549 38.2 0011 0.00 0.79 10.09 0.106 0.66 409 14.2 1717 42.6 99 47 64.0 38.2 64.8 39.3 8.0 0011 -3.7 1232 0.00 0.00 0 3.0 - 0.0 0.0 9.8 1,078 12.4
3/12/24 65.3 1653 40.8 0130 0.00 0.79 10.09 0.100 0.62 400 14.5 2041 46.5 97 56 65.3 40.8 66.2 41.3 3.5 1217 -3.3 1310 0.00 0.00 0 4.0 - 0.0 0.0 7.4 1,069 12.4
3/11/24 62.6 1427 35.2 0712 0.00 0.79 10.09 0.097 0.63 419 14.2 1343 43.9 100 60 62.6 35.2 62.2 36.4 3.8 0211 -4.3 1353 0.00 0.00 0 3.0 - 0.0 0.0 11.5 1,061 12.4
3/10/24 64.0 1459 36.9 0650 0.00 0.79 10.09 0.107 0.62 442 16.8 1606 42.9 99 54 64.0 36.9 64.5 37.4 5.4 2247 -3.3 1310 0.00 0.00 0 3.1 - 0.0 0.0 12.0 1,050 12.4
3/9/24 64.2 1534 34.5 0459 0.00 0.79 10.09 0.077 0.60 329 10.5 1706 44.1 100 56 64.2 34.5 64.7 36.3 6.8 1908 -3.8 1150 0.00 0.00 0 2.5 - 0.0 0.0 12.1 1,038 12.4
3/8/24 64.2 1503 34.5 0554 0.00 0.79 10.09 0.112 0.59 470 14.5 1235 42.9 100 52 64.2 34.5 64.7 35.0 5.0 2023 -3.5 1311 0.00 0.00 0 4.1 - 0.0 0.0 9.8 1,026 12.3
3/7/24 60.0 1406 40.8 2354 0.05 0.79 10.09 0.065 0.54 290 16.8 1359 45.8 100 62 60.0 40.8 62.3 41.6 5.1 2108 -3.8 1218 0.00 0.00 0 2.0 - 0.0 0.0 7.2 1,016 12.4
3/6/24 61.7 1308 44.4 2210 0.01 0.74 10.04 0.063 0.55 249 15.2 1436 46.3 99 52 61.7 44.4 62.3 45.2 2.6 2114 -3.0 1216 0.00 0.00 0 2.0 - 0.0 0.0 0.5 1,009 12.5
3/5/24 64.5 1416 33.3 0633 0.00 0.73 10.03 0.110 0.59 461 11.8 1702 42.2 99 46 64.5 33.3 67.3 34.1 5.0 1255 -3.4 1129 0.00 0.00 0 3.4 - 0.0 0.0 8.6 1,008 12.4
3/4/24 59.8 1554 41.0 2326 0.00 0.73 10.03 0.083 0.55 354 10.5 1637 43.0 98 53 59.8 41.0 62.7 41.6 5.0 1547 -4.1 0945 0.00 0.00 0 1.9 - 0.0 0.0 10.7 999 12.4
3/3/24 57.9 1358 39.5 0636 0.02 0.73 10.03 0.087 0.52 380 19.8 1434 43.4 99 46 57.9 39.5 58.4 40.8 3.7 0859 -4.3 1305 0.00 0.00 0 1.4 - 0.0 0.0 5.6 989 12.4
3/2/24 55.0 1501 44.9 0558 0.47 0.71 10.01 0.071 0.55 356 26.6 1140 45.5 98 57 55.0 44.9 54.6 44.4 1.3 1217 -4.1 1215 0.00 0.00 0 0.7 - 0.0 0.0 0.1 983 12.4
3/1/24 58.7 1232 48.3 0038 0.24 0.24 9.54 0.058 0.59 285 25.2 1522 49.3 97 77 58.7 48.3 58.3 48.5 1.0 1753 -2.9 1146 0.00 0.00 0 2.2 - 0.0 0.0 0.0 983 12.4
2/29/24 59.3 1348 34.8 0248 0.00 3.27 9.30 0.074 0.62 298 19.2 1239 44.2 100 60 59.3 34.8 58.8 36.3 5.1 0509 -3.9 1217 0.00 0.00 0 2.1 - 0.0 0.0 7.0 983 12.4
2/28/24 67.5 1507 37.3 0321 0.00 3.27 9.30 0.111 0.64 435 13.5 1410 43.8 98 51 67.5 37.3 68.9 38.0 6.4 1907 -3.2 1018 0.00 0.00 0 5.0 - 0.0 0.0 11.3 976 12.3
2/27/24 60.1 1402 41.5 2329 0.00 3.27 9.30 0.065 0.60 271 17.8 1407 47.3 99 69 60.1 41.5 60.3 42.6 4.8 2037 -3.4 1400 0.00 0.00 0 2.1 - 0.0 0.0 1.7 965 12.4
2/26/24 61.1 1356 36.5 0650 0.00 3.27 9.30 0.059 0.62 236 9.5 1017 43.4 97 59 61.1 36.5 61.2 37.2 4.0 2015 -3.6 1016 0.00 0.00 0 2.6 - 0.0 0.0 8.8 963 12.4
2/25/24 70.5 1450 35.5 0704 0.00 3.27 9.30 0.111 0.65 428 13.5 1543 43.5 99 41 70.5 35.5 74.3 36.6 5.9 2149 -2.7 0952 0.08 0.00 0 5.0 - 0.0 0.0 11.2 954 12.4
2/24/24 70.6 1319 40.6 0703 0.00 3.27 9.30 0.114 0.62 414 13.8 1352 45.2 97 34 70.6 40.6 72.0 41.7 5.5 1842 -3.2 1055 0.36 0.00 0 6.2 - 0.0 0.0 6.1 943 12.4
2/23/24 64.2 1503 39.5 0532 0.00 3.27 9.30 0.085 0.53 312 18.8 1017 44.8 97 56 64.2 39.5 64.2 40.3 5.0 0056 -2.8 1301 0.00 0.00 0 3.7 - 0.0 0.0 7.5 937 12.4
2/22/24 62.0 1354 37.7 0210 0.00 3.27 9.30 0.094 0.52 392 14.5 1407 43.6 100 54 62.0 37.7 61.8 38.1 4.2 2053 -5.3 1007 0.00 0.00 0 2.9 - 0.0 0.0 10.9 929 12.4
2/21/24 60.3 1428 39.7 0656 0.04 3.27 9.30 0.076 0.51 359 11.8 1208 45.4 100 53 60.3 39.7 61.2 40.3 3.9 1734 -3.4 0951 0.00 0.00 0 2.5 - 0.0 0.0 7.6 919 12.4
2/20/24 63.7 1135 40.0 0445 0.00 3.23 9.26 0.078 0.47 298 18.2 1430 46.3 99 52 63.7 40.0 63.9 42.1 4.9 0231 -3.2 1300 0.00 0.00 0 3.5 - 0.0 0.0 6.6 911 12.4
2/19/24 62.1 1353 44.1 2338 0.69 3.23 9.26 0.089 0.47 358 24.6 1318 49.9 99 56 62.1 44.1 61.9 45.1 4.6 2032 -3.0 1129 0.00 0.00 0 5.1 - 0.0 0.0 0.3 904 12.5
2/18/24 65.9 1147 44.4 0635 0.12 2.54 8.57 0.083 0.47 300 19.5 1542 50.8 100 57 65.9 44.4 68.8 45.7 5.1 0537 -2.9 1145 0.00 0.00 0 6.2 - 0.0 0.0 0.5 904 12.4
2/17/24 56.6 1135 42.6 0454 0.34 2.42 8.45 0.027 0.47 95 15.5 1320 47.2 99 74 56.6 42.6 56.8 43.5 2.6 2209 -1.7 1136 0.00 0.00 0 1.2 - 0.0 0.0 4.3 904 12.4
2/16/24 63.6 1419 39.5 0653 0.00 2.08 8.11 0.072 0.52 285 11.8 1545 45.5 99 54 63.6 39.5 63.3 40.7 4.7 0941 -2.7 1239 0.00 0.00 0 3.3 - 0.0 0.0 8.6 899 12.4
2/15/24 64.3 1405 43.1 2357 0.05 2.08 8.11 0.082 0.51 324 15.2 1455 47.4 98 50 64.3 43.1 65.8 44.3 4.1 2156 -3.5 1107 0.00 0.00 0 3.5 - 0.0 0.0 0.8 891 12.4
2/14/24 56.5 1543 34.3 0430 0.03 2.03 8.06 0.039 0.49 148 13.8 1737 42.6 99 68 56.5 34.3 56.7 35.0 2.7 2119 -1.6 1426 0.00 0.00 0 1.1 - 0.0 0.0 9.7 890 12.3
2/13/24 62.2 1512 30.1 0609 0.00 2.00 8.03 0.083 0.49 367 10.1 1305 39.4 99 44 62.2 30.1 65.4 31.7 7.0 2011 -3.2 1327 0.00 0.00 0 2.6 - 1.6 0.0 13.7 880 12.4
2/12/24 65.2 1500 31.1 0655 0.00 2.00 8.03 0.085 0.47 368 11.8 1608 38.9 98 39 65.2 31.1 67.4 31.6 5.6 2041 -2.5 1047 0.00 0.00 0 2.9 - 1.1 0.0 13.1 867 12.4
2/11/24 62.3 1547 30.4 0631 0.00 2.00 8.03 0.082 0.43 368 10.1 1251 37.0 98 39 62.3 30.4 64.3 30.7 5.4 1953 -3.3 1226 0.00 0.00 0 2.4 - 1.9 0.0 13.6 853 12.4
2/10/24 57.4 1424 29.7 0714 0.00 2.00 8.03 0.078 0.38 357 12.5 1520 36.1 100 44 57.4 29.7 57.9 29.6 5.4 2041 -3.3 1316 0.00 0.00 0 1.2 - 2.8 0.0 15.1 840 12.4
2/9/24 55.5 1240 32.0 0606 0.00 2.00 8.03 0.059 0.34 267 10.5 1420 38.7 99 53 55.5 32.0 58.5 32.6 3.4 2326 -3.7 1147 0.00 0.00 0 0.5 - 0.0 0.0 13.0 825 12.4
2/8/24 54.3 1354 32.1 0546 0.00 2.00 8.03 0.065 0.35 316 13.5 1228 37.7 100 55 54.3 32.1 55.9 32.2 3.5 0541 -5.2 1201 0.00 0.00 0 0.4 - 0.0 0.0 15.4 812 12.3
2/7/24 53.6 1232 35.3 2236 0.38 2.00 8.03 0.041 0.34 180 22.2 1327 41.2 99 66 53.6 35.3 53.5 35.8 3.4 2226 -3.2 1055 0.00 0.00 0 0.3 - 0.0 0.0 15.4 796 12.4
2/6/24 56.6 1338 41.0 0216 0.00 1.62 7.65 0.060 0.36 280 16.2 1556 44.4 100 64 56.6 41.0 56.0 41.9 3.3 0143 -4.4 1008 0.00 0.00 0 0.9 - 0.0 0.0 9.2 781 12.3
2/5/24 59.6 1231 40.9 0630 0.49 1.62 7.65 0.043 0.38 181 16.8 1243 46.7 99 65 59.6 40.9 59.1 42.9 7.2 0627 -2.4 1107 0.00 0.00 0 1.4 - 0.0 0.0 5.1 772 12.3
2/4/24 58.5 1022 46.2 0109 0.54 1.13 7.16 0.037 0.42 96 31.9 1029 48.4 95 68 58.5 46.2 59.5 46.1 2.3 2334 -3.8 1032 0.00 0.00 0 2.6 - 0.0 0.0 0.0 767 12.4
2/3/24 55.8 1329 34.7 0709 0.24 0.59 6.62 0.042 0.48 186 14.2 2328 41.1 98 58 55.8 34.7 56.5 34.8 3.0 0307 -2.0 1020 0.00 0.00 0 0.9 - 0.0 0.0 9.8 767 12.4
2/2/24 57.0 1449 36.3 0703 0.01 0.35 6.38 0.062 0.51 289 17.5 1645 41.6 100 58 57.0 36.3 56.9 36.8 4.0 2155 -4.4 0925 0.00 0.00 0 0.9 - 0.0 0.0 14.5 757 12.3
2/1/24 59.9 1405 44.1 2357 0.34 0.34 6.37 0.061 0.51 248 21.2 0421 47.8 98 63 59.9 44.1 59.9 44.4 2.1 1924 -3.8 1346 0.00 0.00 0 2.6 - 0.0 0.0 0.7 742 12.4
1/31/24 62.7 1140 42.2 0211 0.07 1.97 6.03 0.058 0.51 152 17.2 1715 44.0 91 45 62.7 42.2 62.2 43.4 5.7 0756 -2.5 1050 0.00 0.00 - 3.8 - 0.0 0.0 6.6 742 12.4
1/30/24 70.9 1406 39.9 0514 0.00 1.90 5.96 0.073 0.47 270 12.1 1052 43.2 95 34 70.9 39.9 72.4 40.5 7.1 1750 -2.9 0933 0.56 0.00 - 5.4 - 0.0 0.0 7.6 735 12.4
1/29/24 73.8 1358 41.0 0631 0.00 1.90 5.96 0.093 0.44 320 11.5 1605 45.7 99 33 73.8 41.0 75.3 42.4 6.9 2104 -2.1 1307 4.37 0.00 - 6.6 - 0.0 0.0 5.0 727 12.4
1/28/24 74.5 1327 41.1 0546 0.00 1.90 5.96 0.091 0.39 318 14.2 0808 50.0 98 49 74.5 41.1 74.2 43.2 5.2 0555 -2.6 1319 4.77 0.00 - 7.8 - 0.0 0.0 2.1 722 12.4
1/27/24 63.9 1202 44.5 0240 0.00 1.90 5.96 0.072 0.33 238 18.8 1515 47.8 95 62 63.9 44.5 63.6 46.9 4.8 0245 -2.4 1125 0.00 0.00 - 4.9 - 0.0 0.0 0.1 720 12.4
1/26/24 61.7 1341 37.8 0706 0.00 1.90 5.96 0.064 0.30 256 16.5 1116 45.9 99 64 61.7 37.8 61.0 39.4 4.1 0706 -3.2 1309 0.00 0.00 - 3.5 - 0.0 0.0 6.9 720 12.4
1/25/24 61.9 1428 44.8 2321 0.03 1.90 5.96 0.057 0.27 253 9.5 1505 49.0 100 53 61.9 44.8 63.9 45.9 4.7 2244 -3.6 1031 0.00 0.00 - 2.6 - 0.0 0.0 0.1 713 12.4
1/24/24 55.1 1449 43.0 0045 0.07 1.87 5.93 0.020 0.25 83 12.5 1059 48.4 100 79 55.1 43.0 54.9 43.9 2.7 0043 -1.4 1435 0.00 0.00 - 1.5 - 0.0 0.0 2.5 713 12.4
1/23/24 62.2 1339 46.0 0720 0.00 1.80 5.86 0.044 0.27 182 10.8 1711 49.6 100 66 62.2 46.0 63.6 45.6 3.7 1101 -2.7 1016 0.00 0.00 - 2.9 - 0.0 0.0 0.0 711 12.4
1/22/24 61.3 1241 48.0 2240 0.58 1.80 5.86 0.046 0.28 193 21.9 0322 51.7 100 71 61.3 48.0 61.2 47.7 3.0 0212 -4.8 1010 0.00 0.00 - 3.7 - 0.0 0.0 0.0 711 12.4
1/21/24 60.1 1423 48.0 0249 0.12 1.22 5.28 0.030 0.28 120 10.8 1557 50.2 100 74 60.1 48.0 60.2 48.2 3.2 1815 -2.8 0932 0.00 0.00 - 2.2 - 0.0 0.0 0.0 711 12.4
1/20/24 59.8 1345 49.3 2356 0.37 1.10 5.16 0.038 0.32 131 14.5 1047 51.2 99 71 59.8 49.3 59.2 49.1 1.0 0005 -2.3 0941 0.00 0.00 - 3.8 - 0.0 0.0 0.0 711 12.4
1/19/24 60.2 1631 42.2 0749 0.03 0.73 4.79 0.033 0.33 115 15.5 1638 46.8 99 51 60.2 42.2 61.4 42.6 3.7 1951 -2.7 1054 0.00 0.00 - 3.0 - 0.0 0.0 6.7 711 12.4
1/18/24 61.2 1453 38.9 0312 0.00 0.70 4.76 0.044 0.36 199 18.5 1049 45.8 100 64 61.2 38.9 61.8 39.2 3.9 2139 -2.4 1101 0.00 0.00 - 2.2 - 0.0 0.0 6.4 704 12.4
1/17/24 62.7 1503 42.2 2254 0.09 0.70 4.76 0.038 0.37 162 13.5 1539 49.1 100 73 62.7 42.2 65.8 42.9 4.2 2207 -2.6 1256 0.00 0.00 - 2.1 - 0.0 0.0 1.4 698 12.4
1/16/24 65.4 1537 38.9 0416 0.00 0.61 4.67 0.057 0.39 240 12.8 0236 44.6 100 48 65.4 38.9 66.3 39.6 4.9 1840 -5.0 1016 0.00 0.00 - 2.9 - 0.0 0.0 9.7 696 12.4
1/15/24 58.8 1148 36.7 0418 0.00 0.61 4.67 0.046 0.39 192 16.2 1151 44.3 99 66 58.8 36.7 58.7 37.2 5.2 0049 -3.5 1222 0.00 0.00 - 1.4 - 0.0 0.0 9.1 686 12.4
1/14/24 63.8 1404 34.0 0202 0.00 0.61 4.67 0.063 0.40 257 11.1 0719 40.2 95 44 63.8 34.0 65.1 34.5 6.8 1848 -2.5 1105 0.00 0.00 - 3.0 - 0.0 0.0 10.6 677 12.4
1/13/24 54.8 1357 30.4 0709 0.00 0.61 4.67 0.050 0.39 214 16.8 1326 34.0 95 51 54.8 30.4 54.6 31.1 6.1 1858 -3.2 1354 0.00 0.00 - 0.5 - 1.9 0.0 16.3 667 12.4
1/12/24 56.2 1449 25.4 0658 0.00 0.61 4.67 0.061 0.37 272 11.1 1204 29.8 95 28 56.2 25.4 56.6 26.2 6.7 2208 -2.8 1212 0.00 0.00 - 0.7 - 8.7 6.4 16.5 650 12.3
1/11/24 52.5 1427 29.7 2329 0.01 0.61 4.67 0.060 0.37 284 23.5 0038 33.1 94 41 52.5 29.7 56.0 31.0 4.8 1257 -3.0 0945 0.00 0.00 - 0.1 - 2.2 0.0 14.6 634 12.4
1/10/24 56.2 1417 31.4 0709 0.00 0.60 4.66 0.052 0.36 236 18.2 1438 39.3 99 55 56.2 31.4 57.0 32.3 4.6 1024 -3.8 1007 0.00 0.00 - 0.6 - 0.6 0.0 13.4 619 12.4
1/9/24 59.5 1433 28.1 0601 0.00 0.60 4.66 0.055 0.36 272 7.1 1754 34.1 96 43 59.5 28.1 61.9 28.5 7.0 1736 -2.9 1013 0.00 0.00 - 1.3 - 7.5 0.0 14.8 606 12.4
1/8/24 53.9 1524 26.6 0519 0.00 0.60 4.66 0.056 0.35 277 11.8 1115 30.0 96 36 53.9 26.6 57.0 26.8 5.2 2054 -2.8 1057 0.00 0.00 - 0.4 - 8.5 3.3 17.0 591 12.3
1/7/24 52.2 1347 28.8 2353 0.00 0.60 4.66 0.057 0.35 282 13.2 1535 33.8 99 49 52.2 28.8 52.8 29.5 6.0 2003 -3.2 1015 0.00 0.00 - 0.1 - 3.3 0.0 17.9 574 12.3
1/6/24 51.1 1448 30.2 0725 0.15 0.60 4.66 0.031 0.31 159 18.8 2311 39.3 100 70 51.1 30.2 51.8 30.5 3.6 0116 -2.2 0907 0.00 0.00 - 0.0 - 1.7 0.0 14.5 556 12.4
1/5/24 55.9 1440 36.5 0030 0.00 0.45 4.51 0.055 0.33 263 18.8 1259 40.7 100 64 55.9 36.5 57.3 36.8 4.8 2252 -3.3 1211 0.00 0.00 - 0.9 - 0.0 0.0 15.0 542 12.4
1/4/24 56.1 1421 32.9 0658 0.00 0.45 4.51 0.055 0.33 266 12.8 1652 39.5 100 61 56.1 32.9 58.4 32.7 5.3 1219 -4.1 1113 0.00 0.00 - 0.8 - 0.0 0.0 15.7 527 12.4
1/3/24 55.4 1248 37.4 2352 0.09 0.45 4.51 0.054 0.32 257 20.9 1426 42.7 99 61 55.4 37.4 55.3 37.9 3.6 2311 -3.5 1206 0.00 0.00 - 0.7 - 0.0 0.0 11.2 511 12.4
1/2/24 60.2 1454 35.9 0734 0.36 0.36 4.42 0.046 0.31 220 14.5 2210 43.4 100 55 60.2 35.9 60.5 35.4 2.7 1851 -2.6 1052 0.00 0.00 - 1.5 - 0.0 0.0 11.0 500 12.4
1/1/24 58.0 1436 40.7 0835 0.00 0.00 4.06 0.048 0.30 216 15.2 1109 44.4 100 66 58.0 40.7 57.8 40.5 4.7 0759 -3.0 1248 0.00 0.00 - 1.5 - 0.0 0.0 12.1 489 12.4
12/31/23 54.8 1553 44.4 2136 0.00 3.15 4.06 0.022 0.30 88 10.5 1516 47.8 100 79 54.8 44.4 54.8 45.4 3.5 2136 -1.3 0917 0.00 0.00 - 1.1 - 0.0 0.0 0.5 477 12.4
12/30/23 60.8 1411 47.2 1948 0.54 3.15 4.06 0.047 0.34 213 12.8 1511 49.4 100 65 60.8 47.2 61.1 47.5 3.6 1036 -3.2 1155 0.00 0.00 - 2.2 - 0.0 0.0 0.0 476 12.4
12/29/23 63.9 1302 44.4 0329 0.11 2.61 3.52 0.053 0.33 193 22.5 1401 49.5 100 63 63.9 44.4 63.5 45.9 5.8 1928 -2.7 1300 0.00 0.00 - 4.6 - 0.0 0.0 0.2 476 12.4
12/28/23 65.9 1510 43.5 0511 0.00 2.50 3.41 0.048 0.30 200 9.8 1356 49.1 99 62 65.9 43.5 66.0 44.1 5.2 1747 -3.2 1301 0.00 0.00 - 4.4 - 0.0 0.0 1.8 476 12.4
12/27/23 60.6 1435 39.2 0546 0.00 2.50 3.41 0.041 0.27 165 15.5 1326 45.9 99 66 60.6 39.2 60.5 41.0 5.3 0502 -2.5 1419 0.00 0.00 - 2.0 - 0.0 0.0 8.0 474 12.4
12/26/23 59.8 1428 37.2 0504 0.00 2.50 3.41 0.039 0.24 174 7.4 0013 43.3 99 58 59.8 37.2 59.9 38.6 4.5 1820 -2.2 1136 0.00 0.00 - 1.7 - 0.0 0.0 12.3 466 12.3
12/25/23 62.6 1457 35.5 0653 0.00 2.50 3.41 0.051 0.24 228 12.1 1230 41.7 99 51 62.6 35.5 63.1 35.6 6.5 1834 -2.6 1243 0.00 0.00 - 2.3 - 0.0 0.0 13.7 454 12.4
12/24/23 57.8 1348 36.2 0303 0.00 2.50 3.41 0.055 0.23 245 13.8 1056 41.2 100 60 57.8 36.2 58.1 36.0 4.9 2047 -2.7 1304 0.00 0.00 - 1.6 - 0.0 0.0 13.3 440 12.4
12/23/23 58.8 1353 38.4 2359 0.00 2.50 3.41 0.038 0.22 166 13.5 1536 46.1 100 70 58.8 38.4 58.8 39.0 6.5 2039 -2.6 1154 0.00 0.00 - 1.3 - 0.0 0.0 5.6 427 12.5
12/22/23 63.9 1612 43.0 2331 0.00 2.50 3.41 0.033 0.26 142 8.4 1008 48.9 99 66 63.9 43.0 64.6 43.4 3.7 1952 -1.5 1126 0.00 0.00 - 2.8 - 0.0 0.0 1.0 422 12.2
12/21/23 54.4 1357 49.2 0206 0.83 2.50 3.41 0.011 0.31 31 19.8 1344 50.1 98 89 54.4 49.2 54.7 49.5 1.3 2310 -1.2 1127 0.00 0.00 - 1.5 - 0.0 0.0 0.0 420 12.2
12/20/23 58.7 0906 49.6 1903 1.29 1.67 2.58 0.011 0.37 32 25.6 2145 51.2 99 80 58.7 49.6 59.2 48.8 2.7 0252 -1.9 1149 0.00 0.00 - 2.9 - 0.0 0.0 0.0 420 12.3
12/19/23 63.7 1041 50.6 2210 0.23 0.38 1.29 0.038 0.43 160 16.5 1400 54.2 99 76 63.7 50.6 63.3 51.8 3.7 2109 -2.4 0902 0.00 0.00 - 6.4 - 0.0 0.0 0.0 420 12.4
12/18/23 66.6 1226 48.6 0540 0.14 0.15 1.06 0.046 0.46 157 20.2 1240 48.8 98 46 66.6 48.6 66.6 49.1 6.2 0524 -2.8 1314 0.00 0.00 - 6.2 - 0.0 0.0 0.0 420 12.4
12/17/23 71.7 1413 40.6 0423 0.00 0.01 0.92 0.039 0.50 136 10.1 0213 31.6 67 22 71.7 40.6 76.4 41.9 8.2 1819 -1.2 1306 0.40 0.00 - 4.9 - 0.0 0.0 8.0 420 12.4
12/16/23 71.8 1449 31.8 0711 0.00 0.01 0.92 0.085 0.56 254 13.2 2206 29.9 75 18 71.8 31.8 72.3 34.1 12.5 0308 -2.4 1304 1.88 0.00 - 5.8 - 0.0 0.0 9.0 412 12.3
12/15/23 73.4 1450 32.4 0549 0.00 0.01 0.92 0.086 0.56 261 12.1 0714 32.4 82 20 73.4 32.4 74.1 34.7 10.0 0407 -2.2 1120 2.49 0.00 - 5.4 - 0.0 0.0 11.2 404 12.3
12/14/23 69.9 1420 29.3 0711 0.00 0.01 0.92 0.070 0.54 252 11.8 2044 32.4 90 22 69.9 29.3 71.4 31.0 9.6 2325 -2.0 1050 0.00 0.00 - 4.6 - 3.0 0.0 11.0 392 12.3
12/13/23 66.3 1415 27.8 0646 0.00 0.01 0.92 0.065 0.53 264 15.5 1155 33.6 93 32 66.3 27.8 68.3 29.0 8.0 1901 -3.1 1212 0.00 0.00 - 3.3 - 3.9 0.1 14.6 381 12.3
12/12/23 63.2 1330 29.8 0543 0.00 0.01 0.92 0.076 0.53 264 15.8 1509 33.2 93 35 63.2 29.8 63.4 30.5 8.5 2200 -2.5 1154 0.00 0.00 - 2.8 - 2.9 0.0 14.1 367 12.3
12/11/23 60.9 1454 32.3 0726 0.01 0.01 0.92 0.079 0.54 257 14.8 1522 33.6 86 35 60.9 32.3 62.3 35.0 8.5 0722 -3.3 1051 0.00 0.00 - 2.6 - 0.0 0.0 13.5 353 12.4
12/10/23 64.2 1406 35.7 0251 0.00 0.00 0.91 0.096 0.53 246 18.2 1230 31.3 79 27 64.2 35.7 64.2 37.8 8.8 2115 -3.1 1211 0.00 0.00 - 3.2 - 0.0 0.0 11.3 339 12.3
12/9/23 59.8 1425 36.9 0538 0.00 0.00 0.91 0.087 0.48 245 17.5 1258 32.5 85 32 59.8 36.9 59.5 37.9 5.1 2013 -4.0 1148 0.00 0.00 - 1.8 - 0.0 0.0 11.8 328 12.3
12/8/23 57.1 1254 29.6 0703 0.00 0.00 0.91 0.070 0.46 269 19.8 1512 34.9 96 49 57.1 29.6 56.4 30.2 3.9 2205 -3.7 1254 0.00 0.00 - 1.3 - 3.8 0.0 14.0 316 12.3
12/7/23 62.4 1503 35.8 2353 0.00 0.00 0.91 0.054 0.44 240 8.8 1439 41.6 99 45 62.4 35.8 63.7 36.2 8.0 2033 -2.8 1048 0.00 0.00 - 2.3 - 0.0 0.0 7.1 302 12.4
12/6/23 66.8 1113 36.8 0702 0.00 0.00 0.91 0.068 0.46 265 23.5 1156 43.2 97 39 66.8 36.8 69.6 38.4 5.0 0636 -3.5 1201 0.00 0.00 - 3.9 - 0.0 0.0 8.9 295 12.4
12/5/23 71.3 1311 41.6 0123 0.00 0.00 0.91 0.090 0.44 265 16.5 1403 42.8 94 37 71.3 41.6 71.0 43.1 8.9 2020 -3.1 1213 0.58 0.00 - 5.7 - 0.0 0.0 8.8 286 12.4
12/4/23 63.9 1329 40.6 0512 0.00 0.00 0.91 0.067 0.43 243 17.5 1118 44.6 96 56 63.9 40.6 63.6 42.2 5.0 0512 -3.4 1302 0.00 0.00 - 3.8 - 0.0 0.0 7.4 277 12.3
12/3/23 61.7 1359 32.3 0657 0.00 0.00 0.91 0.049 0.46 189 12.1 1519 40.2 96 56 61.7 32.3 61.6 32.8 4.7 0947 -2.8 1336 0.00 0.00 - 2.5 - 0.0 0.0 9.5 270 12.3
12/2/23 62.9 1405 29.3 0649 0.00 0.00 0.91 0.058 0.51 254 10.8 1421 36.3 96 47 62.9 29.3 63.5 30.2 7.3 2004 -3.0 1132 0.00 0.00 - 2.7 - 4.0 0.0 14.0 260 12.3
12/1/23 61.0 1516 32.3 0641 0.00 0.00 0.91 0.054 0.54 256 8.1 0826 37.0 99 43 61.0 32.3 64.0 32.8 9.1 1946 -2.8 1245 0.00 0.00 - 1.8 - 0.0 0.0 15.0 246 12.3
11/30/23 62.0 1429 39.3 0001 0.00 0.82 0.91 0.070 0.56 247 23.9 1515 41.6 96 41 62.0 39.3 62.2 40.3 5.0 2327 -3.5 1253 0.00 0.00 - 2.6 - 0.0 0.0 9.3 232 12.4
11/29/23 63.7 1353 35.1 0050 0.00 0.82 0.91 0.057 0.57 240 11.1 0949 40.5 93 51 63.7 35.1 67.0 35.9 7.9 2129 -2.9 0916 0.00 0.00 - 3.1 - 0.0 0.0 13.1 222 12.4
11/28/23 65.2 1401 30.4 0657 0.00 0.82 0.91 0.080 0.61 272 15.8 1443 31.9 90 25 65.2 30.4 65.9 31.3 9.6 1839 -2.4 1122 0.00 0.00 - 3.6 - 1.5 0.0 14.5 209 12.3
11/27/23 65.0 1335 38.6 0626 0.00 0.82 0.91 0.095 0.62 256 15.5 1405 30.8 79 24 65.0 38.6 64.9 39.6 7.9 2020 -3.1 1311 0.00 0.00 - 3.1 - 0.0 0.0 12.7 195 12.4
11/26/23 62.1 1146 32.8 0422 0.00 0.82 0.91 0.101 0.62 261 18.8 1258 29.6 84 25 62.1 32.8 62.0 33.4 5.7 0001 -3.1 1122 0.00 0.00 - 2.9 - 0.0 0.0 9.6 182 12.4
11/25/23 62.2 1405 28.2 0644 0.00 0.82 0.91 0.084 0.61 292 14.2 1323 30.0 91 28 62.2 28.2 62.8 29.1 8.8 2153 -3.2 1258 0.00 0.00 - 2.6 - 5.2 0.0 12.9 172 12.3
11/24/23 61.7 1323 32.7 0611 0.00 0.82 0.91 0.080 0.55 296 14.8 1419 33.1 97 32 61.7 32.7 62.2 34.1 8.4 2144 -3.4 1129 0.00 0.00 - 2.3 - 0.0 0.0 13.7 160 12.4
11/23/23 71.7 1357 39.0 0638 0.00 0.82 0.91 0.079 0.54 289 10.1 1622 38.5 93 27 71.7 39.0 73.7 40.2 9.0 2300 -2.3 1042 0.56 0.00 - 5.9 - 0.0 0.0 7.0 146 12.4
11/22/23 73.2 1342 35.7 0445 0.00 0.82 0.91 0.094 0.56 286 12.5 1342 36.3 88 17 73.2 35.7 76.0 36.8 8.3 1930 -2.7 1024 3.27 0.00 - 6.4 - 0.0 0.0 8.2 139 12.4
11/21/23 72.9 1417 33.9 0433 0.00 0.82 0.91 0.087 0.54 291 12.5 1213 35.6 92 26 72.9 33.9 74.2 34.4 10.5 2022 -3.0 1114 1.31 0.00 - 5.1 - 0.0 0.0 10.0 131 12.4
11/20/23 64.1 1425 40.4 2359 0.00 0.82 0.91 0.100 0.53 305 18.5 0246 35.4 83 35 64.1 40.4 64.4 41.2 7.2 0007 -3.3 1121 0.00 0.00 - 3.2 - 0.0 0.0 4.7 121 12.5
11/19/23 64.1 1312 43.4 2147 0.01 0.82 0.91 0.088 0.54 306 16.5 1401 41.4 99 27 64.1 43.4 66.7 44.9 7.9 2148 -2.3 1139 0.00 0.00 - 3.8 - 0.0 0.0 0.8 116 12.3
11/18/23 61.4 1541 48.8 0016 0.80 0.81 0.90 0.019 0.57 73 10.1 1203 54.1 98 91 61.4 48.8 62.0 49.3 2.9 0417 -1.7 1116 0.00 0.00 - 5.4 - 0.0 0.0 0.0 115 12.4
11/17/23 71.9 1217 42.3 0621 0.01 0.01 0.10 0.076 0.67 166 24.6 1505 47.3 96 38 71.9 42.3 71.6 43.0 5.3 2056 -4.1 1040 2.07 0.00 - 6.7 - 0.0 0.0 3.3 115 12.3
11/16/23 74.2 1245 47.1 0001 0.00 0.00 0.09 0.091 0.70 254 22.5 1109 49.6 94 39 74.2 47.1 75.4 48.6 6.0 2101 -3.4 1115 4.04 0.00 - 9.3 - 0.0 0.0 0.0 112 12.3
11/15/23 71.0 1131 37.1 0226 0.00 0.00 0.09 0.074 0.71 97 21.2 1543 40.1 89 21 71.0 37.1 70.8 39.2 8.5 0143 -2.3 1541 0.50 0.00 - 7.0 - 0.0 0.0 4.7 112 12.4
11/14/23 71.2 1449 35.1 0616 0.00 0.00 0.09 0.081 0.72 278 12.1 1245 39.4 97 35 71.2 35.1 71.0 35.5 8.5 1759 -3.1 1137 0.56 0.00 - 5.1 - 0.0 0.0 9.9 107 12.3
11/13/23 74.2 1328 35.4 0431 0.00 0.00 0.09 0.108 0.74 283 17.5 1318 30.3 94 15 74.2 35.4 74.0 37.0 6.3 0257 -3.4 1134 2.97 0.00 - 5.9 - 0.0 0.0 10.2 97 12.3
11/12/23 79.7 1441 31.2 0602 0.00 0.00 0.09 0.120 0.74 327 14.8 1518 27.8 87 10 79.7 31.2 80.3 34.8 10.3 2003 -3.5 1224 5.69 0.00 - 8.0 - 0.1 0.0 11.6 87 12.3
11/11/23 70.2 1405 34.2 0629 0.00 0.00 0.09 0.123 0.73 322 17.5 1157 33.5 82 23 70.2 34.2 70.6 35.1 5.1 0021 -3.6 1233 0.07 0.00 - 6.4 - 0.0 0.0 8.2 76 12.3
11/10/23 69.2 1427 33.0 0601 0.00 0.00 0.09 0.106 0.71 320 15.8 1158 33.3 90 23 69.2 33.0 69.6 34.3 7.8 2200 -4.4 1200 0.00 0.00 - 5.2 - 0.0 0.0 11.6 67 12.3
11/9/23 69.9 1330 31.3 0606 0.00 0.00 0.09 0.096 0.74 315 11.8 1105 34.7 89 24 69.9 31.3 70.4 32.5 6.5 0328 -3.8 1103 0.00 0.00 - 5.5 - 1.1 0.0 10.5 56 12.3
11/8/23 68.6 1348 32.9 0602 0.00 0.00 0.09 0.093 0.76 337 11.5 1444 36.3 97 30 68.6 32.9 70.5 33.7 10.3 2044 -3.3 1107 0.00 0.00 - 4.5 - 0.0 0.0 12.3 45 12.2
11/7/23 66.3 1402 41.4 2359 0.00 0.00 0.09 0.098 0.81 320 24.2 1501 45.4 99 39 66.3 41.4 66.7 42.1 4.5 2345 -3.6 1120 0.00 0.00 - 5.4 - 0.0 0.0 2.1 33 12.4
11/6/23 73.8 1355 45.8 0250 0.00 0.00 0.09 0.108 0.86 324 15.2 1353 47.2 83 37 73.8 45.8 74.3 46.6 5.4 0908 -3.0 1307 4.90 0.00 - 10.7 - 0.0 0.0 0.0 31 12.4
11/5/23 80.8 1456 40.4 0548 0.00 0.00 0.09 0.112 0.90 340 10.8 1325 36.5 77 15 80.8 40.4 82.1 42.2 8.9 1811 -3.0 0941 6.42 0.00 - 10.4 - 0.0 0.0 5.0 31 12.3
11/4/23 88.3 1604 39.6 0710 0.00 0.00 0.09 0.098 0.94 329 7.8 0615 36.5 78 16 88.3 39.6 92.4 40.7 11.4 1916 -1.9 1038 4.24 0.00 - 11.5 - 0.0 0.0 4.6 26 12.3
11/3/23 81.2 1509 42.2 0718 0.00 0.00 0.09 0.134 0.96 339 13.5 1124 33.9 67 20 81.2 42.2 82.1 43.5 10.5 2055 -3.2 1132 7.18 0.00 - 11.0 - 0.0 0.0 3.3 21 12.4
11/2/23 84.1 1456 34.5 0531 0.00 0.00 0.09 0.121 0.92 354 10.1 1655 27.8 69 9 84.1 34.5 86.0 35.5 10.8 2051 -3.1 0959 6.67 0.00 - 11.1 - 0.0 0.0 7.9 18 12.3
11/1/23 80.9 1316 34.4 0541 0.00 0.00 0.09 0.140 0.90 369 12.8 1351 27.6 74 9 80.9 34.4 84.0 36.0 14.1 1923 -2.4 1145 6.58 0.00 - 9.6 - 0.0 0.0 10.2 10 12.3
10/31/23 79.8 1447 31.3 0712 0.00 0.02 0.09 0.149 0.85 358 16.2 1543 26.7 76 14 79.8 31.3 80.2 35.6 14.3 2126 -2.5 1343 6.48 0.00 0 9.2 3,220 0.1 0.0 8.8 - 12.3
10/30/23 76.2 1414 33.4 0718 0.00 0.02 0.09 0.150 0.81 378 14.8 1407 24.3 71 11 76.2 33.4 76.5 35.4 10.4 2135 -2.7 1217 5.81 0.00 0 8.2 3,211 0.0 0.0 9.7 - 12.3
10/29/23 71.1 1447 32.9 0651 0.00 0.02 0.09 0.151 0.76 376 18.2 1525 27.0 78 16 71.1 32.9 70.7 34.6 11.1 0101 -3.6 1146 0.87 0.00 0 6.5 3,203 0.0 0.0 9.5 - 12.3
10/28/23 68.0 1337 34.2 0657 0.00 0.02 0.09 0.113 0.72 375 13.5 2009 32.7 90 26 68.0 34.2 68.8 34.8 12.0 0059 -3.1 1340 0.00 0.00 0 5.5 3,196 0.0 0.0 8.9 - 12.3
10/27/23 71.8 1537 34.6 0642 0.00 0.02 0.09 0.099 0.72 366 10.5 1243 37.4 95 27 71.8 34.6 73.8 36.2 9.7 2109 -3.3 1249 1.27 0.00 10 6.3 3,191 0.0 0.0 10.6 - 12.3
10/26/23 68.0 1454 41.6 0026 0.00 0.02 0.09 0.100 0.78 356 14.2 1501 45.7 98 43 68.0 41.6 68.6 42.8 6.4 1135 -2.7 1409 0.00 0.00 20 5.6 3,185 0.0 0.0 1.1 - 12.3
10/25/23 69.9 1545 42.6 0416 0.00 0.02 0.09 0.093 0.86 321 15.8 1402 47.2 99 38 69.9 42.6 70.5 44.3 4.8 0304 -4.2 1229 0.00 0.00 30 5.7 3,179 0.0 0.0 1.7 - 12.4
10/24/23 81.8 1607 42.4 0620 0.00 0.02 0.09 0.109 0.94 382 11.8 1206 49.1 97 38 81.8 42.4 85.0 43.4 8.0 2013 -5.1 0948 5.95 0.00 40 10.2 3,173 0.0 0.0 2.6 - 12.4
10/23/23 74.4 1514 48.7 0035 0.00 0.02 0.09 0.096 1.00 329 11.1 1211 52.4 93 46 74.4 48.7 76.1 49.6 6.3 2142 -3.4 1239 3.82 0.00 50 10.7 3,163 0.0 0.0 0.0 - 12.4
10/22/23 74.5 1438 43.0 0724 0.00 0.02 0.09 0.107 1.05 352 19.2 1459 50.8 96 47 74.5 43.0 74.2 43.9 4.1 1014 -4.3 1145 3.22 0.00 60 8.8 3,152 0.0 0.0 3.9 - 12.3
10/21/23 74.9 1421 47.0 0710 0.00 0.02 0.09 0.119 1.08 388 17.2 1402 49.7 94 45 74.9 47.0 74.7 47.6 5.0 2157 -4.0 1300 4.82 0.00 70 9.2 3,143 0.0 0.0 0.0 - 12.3
10/20/23 90.2 1517 46.7 0708 0.01 0.02 0.09 0.158 1.09 394 14.5 1528 43.5 86 12 90.2 46.7 93.6 49.0 10.9 1129 -1.0 1447 2.78 0.00 80 17.2 3,134 0.0 0.0 0.0 - 12.4
10/19/23 96.1 1432 49.0 0627 0.00 0.01 0.08 0.180 1.10 394 16.5 1344 47.6 88 18 96.1 49.0 95.4 52.0 9.7 2213 -4.0 1314 2.28 0.09 90 20.5 3,117 0.0 0.0 0.0 - 12.4
10/18/23 91.1 1454 47.8 0700 0.00 0.01 0.08 0.176 1.06 405 16.5 1511 50.3 86 25 91.1 47.8 91.0 50.6 11.0 2152 -4.6 1245 2.70 0.00 100 18.7 3,097 0.0 0.0 0.0 - 12.4
10/17/23 83.7 1514 44.6 0652 0.00 0.01 0.08 0.165 1.02 410 17.8 1518 48.2 95 27 83.7 44.6 83.6 46.3 6.0 2023 -4.4 1322 8.83 0.00 80 14.6 3,078 0.0 0.0 0.1 - 12.3
10/16/23 86.8 1545 43.9 0657 0.00 0.01 0.08 0.149 1.00 395 15.5 1529 46.7 91 25 86.8 43.9 87.5 44.8 7.0 0125 -4.2 1323 3.71 0.00 90 15.0 3,063 0.0 0.0 1.5 - 12.4
10/15/23 89.8 1515 43.6 0329 0.00 0.01 0.08 0.140 0.96 411 12.1 1601 43.0 84 21 89.8 43.6 91.1 44.8 10.7 1926 -4.4 1234 3.28 0.00 100 15.0 3,048 0.0 0.0 2.9 - 12.4
10/14/23 83.5 1549 42.4 0537 0.00 0.01 0.08 0.128 1.01 388 10.8 1741 40.2 82 22 83.5 42.4 87.4 43.9 9.9 2042